Terminal Aerodrome Forecast
Issued by NWS

Home | Current Version | Previous Version | Graphics & Text | Print | Product List | Glossary On
Versions: 1 2 3 4 5 6 7 8 9 10 11 12 13 14 15
000
FTUS43 KBIS 222300
TAFJMS
TAF
KJMS 222334Z 2300/2324 23014KT P6SM BKN100
     FM230600 26015KT P6SM BKN050 OVC100
     FM231200 30013KT P6SM SCT050 BKN150=

USA.gov is the U.S. government's official web portal to all federal, state and local government web resources and services.